ORBI/SDA METAR and TAF weather

Enter ICAO airport designator
Station Type Date Time Source
ORBI METAR 2019/12/10 03:00 UTC NOAA

ORBI 100300Z 13008KT 7000 NSC 10/07 Q1018 NOSIG


Station Type Date Time Source
ORBI Decoded METAR 2019/12/10 03:00 UTC NOAA

Station name not available
Dec 09, 2019 - 10:00 PM EST / 2019.12.10 0300 UTC
Wind: from the SE (130 degrees) at 9 MPH (8 KT):0
Visibility: 4 mile(s):0
Temperature: 50 F (10 C)
Dew Point: 44 F (7 C)
Relative Humidity: 81%
Pressure (altimeter): 30.06 in. Hg (1018 hPa)
ob: ORBI 100300Z 13008KT 7000 NSC 10/07 Q1018 NOSIG
cycle: 3

Station Type Date Time Source
ORBI TAF 2019/12/10 00:00 UTC NOAA

TAF TAF ORBI 092300Z 1000/1024 14010KT 8000 NSC
BECMG 1004/1006 BKN030 BKN080
TEMPO 1012/1024 -RA

Example: see airport list